Time;durP1;ratioP1;P1;durP2;ratioP2;P2;SDS_P1;SDS_P2;PMS_P1;PMS_P2;Temp;Humidity;BMP_temperature;BMP_pressure;BME280_temperature;BME280_humidity;BME280_pressure;Samples;Min_cycle;Max_cycle;Signal;HPM_P1;HPM_P2
2021/09/10 11:06:38;;;;;;;8.27;4.20;;;;;;;25.47;47.12;99658.97;10375291;28;20502;-82
2021/09/10 11:11:40;;;;;;;8.63;4.30;;;;;;;25.54;47.75;99662.56;10409746;28;20496;-81
2021/09/10 11:16:44;;;;;;;10.52;4.13;;;;;;;25.17;48.57;99660.13;10392686;28;20140;-81
2021/09/10 11:22:00;;;;;;;9.18;4.00;;;;;;;24.90;49.17;99654.50;10392496;28;20093;-81
2021/09/10 11:27:23;;;;;;;6.97;4.30;;;;;;;24.75;49.86;99658.25;10387053;28;20107;-80
2021/09/10 11:32:26;;;;;;;6.72;4.55;;;;;;;24.88;49.84;99661.06;10391061;28;20150;-81
2021/09/10 11:37:33;;;;;;;7.40;4.30;;;;;;;25.16;50.67;99639.75;10391936;28;20053;-81
2021/09/10 11:42:42;;;;;;;6.57;3.95;;;;;;;25.48;48.70;99634.72;10394130;28;20053;-81
2021/09/10 11:47:48;;;;;;;6.43;3.97;;;;;;;25.28;49.36;99641.72;10393205;28;20161;-81
2021/09/10 11:52:50;;;;;;;5.13;3.70;;;;;;;24.83;50.50;99644.78;10393109;28;20135;-81
2021/09/10 11:58:12;;;;;;;8.07;3.85;;;;;;;24.62;50.89;99650.03;10393988;28;20053;-81
2021/09/10 12:03:14;;;;;;;8.70;3.70;;;;;;;24.25;51.90;99648.34;10390451;28;20483;-81
2021/09/10 12:08:16;;;;;;;9.35;3.92;;;;;;;24.09;52.37;99670.75;10389091;22;20457;-65
2021/09/10 12:13:18;;;;;;;30.05;4.10;;;;;;;23.23;54.02;99672.19;10394739;28;20058;-65
2021/09/10 12:18:23;;;;;;;16.75;3.50;;;;;;;21.89;56.68;99675.13;10391717;28;20057;-65
2021/09/10 12:23:25;;;;;;;10.45;2.83;;;;;;;21.04;58.74;99657.88;10390569;28;20489;-65
2021/09/10 12:28:32;;;;;;;12.05;3.38;;;;;;;20.63;60.75;99682.69;10416052;28;20501;-64
2021/09/10 12:33:38;;;;;;;9.90;2.75;;;;;;;20.27;60.87;99684.66;10389827;28;20063;-65
2021/09/10 12:38:43;;;;;;;11.82;3.33;;;;;;;19.82;62.25;99677.97;10392209;28;20045;-65
2021/09/10 12:43:47;;;;;;;11.85;2.42;;;;;;;19.77;62.24;99681.06;10403956;28;20244;-65
2021/09/10 12:48:48;;;;;;;15.15;3.30;;;;;;;20.10;64.15;99674.13;10426542;28;20464;-65
2021/09/10 12:53:50;;;;;;;17.38;3.10;;;;;;;20.48;63.48;99670.16;10393791;28;20568;-65
2021/09/10 12:58:52;;;;;;;15.57;4.10;;;;;;;20.58;63.86;99692.97;10429790;28;20136;-65
2021/09/10 13:03:54;;;;;;;10.50;3.08;;;;;;;20.53;62.74;99705.88;10427841;28;20055;-65
2021/09/10 13:08:56;;;;;;;11.68;3.05;;;;;;;20.26;63.28;99701.63;10429004;28;20064;-65
2021/09/10 13:13:58;;;;;;;12.52;3.33;;;;;;;20.23;63.95;99682.53;10404203;28;20060;-64
2021/09/10 13:19:00;;;;;;;15.20;4.00;;;;;;;20.16;65.13;99681.47;10404240;28;20088;-64
2021/09/10 13:24:02;;;;;;;9.93;2.97;;;;;;;19.98;64.88;99681.56;10425872;28;20048;-65
2021/09/10 13:29:03;;;;;;;7.95;2.97;;;;;;;20.16;64.70;99684.97;10415691;28;20089;-65
2021/09/10 13:34:05;;;;;;;5.95;2.95;;;;;;;20.27;64.46;99678.56;10393852;28;20321;-65
2021/09/10 13:39:07;;;;;;;8.65;2.92;;;;;;;20.44;64.09;99677.59;10426236;28;20489;-65
2021/09/10 13:44:09;;;;;;;7.05;2.65;;;;;;;20.68;62.85;99669.75;10435989;28;20052;-65
2021/09/10 13:49:10;;;;;;;10.60;2.88;;;;;;;20.98;63.36;99671.81;10432122;28;20075;-65
2021/09/10 13:54:12;;;;;;;10.18;3.30;;;;;;;21.47;63.76;99664.72;10432711;28;20643;-65
2021/09/10 13:59:13;;;;;;;8.82;2.95;;;;;;;21.70;62.51;99670.19;10402637;28;20573;-65
2021/09/10 14:04:27;;;;;;;15.45;3.00;;;;;;;21.94;62.29;99667.47;10392969;28;20454;-65
2021/09/10 14:09:29;;;;;;;7.40;2.80;;;;;;;22.14;61.56;99676.78;10413280;28;20059;-65
2021/09/10 14:14:31;;;;;;;18.55;3.67;;;;;;;22.04;61.85;99665.47;10405551;28;20051;-66
2021/09/10 14:19:32;;;;;;;10.38;3.28;;;;;;;21.94;62.62;99682.63;10394128;28;20053;-69
2021/09/10 14:24:34;;;;;;;17.08;3.75;;;;;;;21.96;63.05;99677.94;10394308;28;20060;-68
2021/09/10 14:29:37;;;;;;;7.07;3.38;;;;;;;22.02;62.92;99669.28;10398190;28;20056;-68
2021/09/10 14:34:39;;;;;;;6.97;3.55;;;;;;;21.89;62.34;99644.00;10393227;28;20104;-68
2021/09/10 14:39:42;;;;;;;13.05;3.50;;;;;;;21.77;62.70;99661.34;10428713;28;20061;-68
2021/09/10 14:44:43;;;;;;;10.38;3.33;;;;;;;21.52;63.49;99658.88;10393131;28;20053;-68
2021/09/10 14:49:45;;;;;;;9.82;3.15;;;;;;;21.14;63.92;99667.50;10425239;28;20053;-68
2021/09/10 14:54:47;;;;;;;7.10;3.90;;;;;;;20.76;65.08;99679.59;10430910;28;20147;-68
2021/09/10 15:00:00;;;;;;;6.20;3.22;;;;;;;20.47;65.77;99677.31;10428579;28;20077;-68
2021/09/10 15:05:05;;;;;;;5.72;2.92;;;;;;;20.46;65.44;99680.13;10429445;28;20568;-68
2021/09/10 15:10:11;;;;;;;5.35;3.03;;;;;;;20.33;65.62;99672.59;10382462;28;20064;-68
2021/09/10 15:15:13;;;;;;;11.27;3.10;;;;;;;20.36;66.34;99682.09;10426778;28;20057;-68
2021/09/10 15:20:15;;;;;;;13.25;3.65;;;;;;;20.33;66.71;99693.00;10418520;28;20129;-69
2021/09/10 15:25:17;;;;;;;13.60;3.50;;;;;;;20.38;66.86;99720.75;10416803;28;20753;-68
2021/09/10 15:30:23;;;;;;;7.90;3.90;;;;;;;20.33;67.31;99717.75;10398101;28;20132;-68
2021/09/10 15:35:24;;;;;;;5.75;2.83;;;;;;;20.21;66.48;99716.38;10393249;28;20053;-68
2021/09/10 15:40:26;;;;;;;9.40;3.15;;;;;;;20.48;66.14;99716.13;10413625;28;20054;-67
2021/09/10 15:45:28;;;;;;;10.98;3.33;;;;;;;20.45;66.39;99707.66;10389830;28;20254;-68
2021/09/10 15:50:30;;;;;;;7.53;3.40;;;;;;;20.36;65.96;99717.41;10404556;28;20053;-68
2021/09/10 15:55:35;;;;;;;7.68;3.70;;;;;;;20.50;66.27;99714.16;10388478;28;20152;-68
2021/09/10 16:00:37;;;;;;;7.75;3.17;;;;;;;20.61;65.13;99716.56;10418881;28;20049;-68
2021/09/10 16:05:40;;;;;;;9.55;3.45;;;;;;;20.82;65.16;99722.31;10426393;28;20056;-68
2021/09/10 16:10:41;;;;;;;13.93;3.38;;;;;;;20.90;65.61;99706.38;10383215;28;20063;-68
2021/09/10 16:15:43;;;;;;;11.13;3.40;;;;;;;21.00;65.33;99701.75;10418975;28;20059;-68
2021/09/10 16:20:45;;;;;;;15.82;4.20;;;;;;;21.14;65.30;99699.41;10407004;28;20425;-68
2021/09/10 16:25:47;;;;;;;15.90;3.83;;;;;;;21.10;65.32;99682.97;10396640;28;20061;-68
2021/09/10 16:30:51;;;;;;;18.60;3.85;;;;;;;21.08;65.48;99683.13;10406270;28;20076;-68
2021/09/10 16:35:53;;;;;;;7.93;3.45;;;;;;;21.00;65.43;99688.44;10415664;28;20573;-68
2021/09/10 16:40:54;;;;;;;7.63;3.80;;;;;;;21.11;65.42;99694.44;10393698;28;20049;-68
2021/09/10 16:45:56;;;;;;;21.23;4.57;;;;;;;21.07;65.59;99696.56;10405734;28;20054;-68
2021/09/10 16:50:58;;;;;;;9.85;3.90;;;;;;;20.85;65.48;99694.53;10409662;28;20302;-68
2021/09/10 16:56:00;;;;;;;14.48;3.85;;;;;;;20.57;65.84;99698.41;10409184;28;20417;-68
2021/09/10 17:01:02;;;;;;;6.40;2.67;;;;;;;20.60;65.33;99698.94;10413474;28;20133;-68
2021/09/10 17:06:04;;;;;;;8.00;4.10;;;;;;;20.55;65.70;99703.06;10400097;28;20053;-68
2021/09/10 17:11:09;;;;;;;18.63;4.30;;;;;;;20.49;66.13;99704.53;10397424;28;20053;-68
2021/09/10 17:16:11;;;;;;;9.68;4.32;;;;;;;20.32;66.69;99710.75;10398803;28;20059;-69
2021/09/10 17:21:13;;;;;;;9.32;4.45;;;;;;;20.21;67.25;99711.06;10401929;28;20395;-68
2021/09/10 17:26:15;;;;;;;6.68;3.65;;;;;;;20.16;66.95;99708.03;10408742;28;20083;-69
2021/09/10 17:31:16;;;;;;;15.88;5.18;;;;;;;20.15;67.27;99719.66;10398007;28;20064;-68
2021/09/10 17:36:18;;;;;;;10.40;5.60;;;;;;;20.06;67.17;99717.94;10396367;28;20296;-69
2021/09/10 17:41:20;;;;;;;11.55;4.82;;;;;;;19.98;66.68;99710.75;10433522;28;20059;-68
2021/09/10 17:46:21;;;;;;;16.58;6.78;;;;;;;20.01;67.30;99717.59;10398226;28;20143;-68
2021/09/10 17:51:23;;;;;;;13.60;5.57;;;;;;;19.72;67.27;99717.00;10395763;28;20046;-68
2021/09/10 17:56:25;;;;;;;25.17;5.43;;;;;;;19.57;68.03;99730.00;10399451;28;20164;-68
2021/09/10 18:01:28;;;;;;;11.20;5.07;;;;;;;19.69;67.75;99735.88;10394987;28;20053;-68
2021/09/10 18:06:30;;;;;;;13.95;4.30;;;;;;;19.56;67.75;99741.59;10400430;28;20061;-68
2021/09/10 18:11:32;;;;;;;29.75;6.60;;;;;;;19.58;68.24;99760.84;10405372;28;20058;-68
2021/09/10 18:16:35;;;;;;;8.25;3.75;;;;;;;19.57;68.24;99774.25;10395240;28;20061;-64
2021/09/10 18:21:36;;;;;;;27.20;8.10;;;;;;;19.75;67.70;99785.69;10415090;28;20417;-64
2021/09/10 18:26:38;;;;;;;9.48;5.28;;;;;;;19.66;67.93;99795.41;10417293;28;20056;-64
2021/09/10 18:31:40;;;;;;;16.00;5.53;;;;;;;19.63;68.20;99785.09;10409517;28;20053;-64
2021/09/10 18:36:42;;;;;;;8.35;5.38;;;;;;;19.46;68.30;99784.09;10412444;28;20056;-64
2021/09/10 18:41:43;;;;;;;12.35;5.32;;;;;;;19.28;69.01;99780.63;10393609;28;20116;-63
2021/09/10 18:46:45;;;;;;;8.63;4.90;;;;;;;19.25;68.82;99791.53;10394365;28;20301;-64
2021/09/10 18:51:48;;;;;;;7.40;4.20;;;;;;;19.38;68.94;99810.53;10404167;28;20053;-64
2021/09/10 18:56:50;;;;;;;14.18;6.88;;;;;;;19.40;68.65;99810.38;10394047;28;20051;-64
2021/09/10 19:01:52;;;;;;;15.80;5.72;;;;;;;19.15;69.50;99814.63;10400771;28;20051;-63
2021/09/10 19:06:54;;;;;;;7.55;5.10;;;;;;;19.18;69.53;99824.91;10406061;28;20060;-63
2021/09/10 19:11:56;;;;;;;10.05;4.47;;;;;;;19.27;69.17;99826.69;10402083;28;20051;-63
2021/09/10 19:16:57;;;;;;;12.10;4.20;;;;;;;19.38;68.96;99839.72;10395332;28;20049;-64
2021/09/10 19:21:59;;;;;;;16.75;5.03;;;;;;;19.48;68.69;99835.19;10396389;28;20137;-63
2021/09/10 19:27:01;;;;;;;11.70;5.72;;;;;;;19.55;68.90;99832.78;10393549;28;20053;-63
2021/09/10 19:32:03;;;;;;;11.95;4.32;;;;;;;19.52;68.62;99834.91;10392965;28;20053;-64
2021/09/10 19:37:06;;;;;;;9.65;4.65;;;;;;;19.54;68.82;99840.88;10388639;28;20093;-63
2021/09/10 19:42:08;;;;;;;22.35;5.63;;;;;;;19.54;68.80;99843.53;10409161;28;20051;-63
2021/09/10 19:47:12;;;;;;;14.48;4.88;;;;;;;19.53;68.58;99847.16;10412450;28;20040;-64
2021/09/10 19:52:15;;;;;;;8.73;4.50;;;;;;;19.54;68.48;99851.50;10419818;28;20099;-64
2021/09/10 19:57:16;;;;;;;13.55;4.70;;;;;;;19.54;68.51;99851.50;10416291;28;20053;-63
2021/09/10 20:02:19;;;;;;;11.40;6.13;;;;;;;19.59;68.46;99855.34;10417150;28;20080;-63
2021/09/10 20:07:22;;;;;;;13.88;5.10;;;;;;;19.54;68.29;99854.16;10405550;28;20083;-65
2021/09/10 20:12:25;;;;;;;11.43;6.40;;;;;;;19.56;68.31;99845.06;10408641;28;20049;-63
2021/09/10 20:17:27;;;;;;;12.57;5.63;;;;;;;19.62;68.01;99856.88;10415253;28;20188;-63
2021/09/10 20:22:29;;;;;;;12.20;6.28;;;;;;;19.57;68.37;99848.53;10423119;28;20497;-63
2021/09/10 20:27:32;;;;;;;13.85;6.88;;;;;;;19.45;67.94;99845.28;10408877;28;20049;-62
2021/09/10 20:32:34;;;;;;;26.33;10.77;;;;;;;19.28;68.18;99848.72;10396633;28;20108;-63
2021/09/10 20:37:36;;;;;;;10.48;4.93;;;;;;;19.16;68.50;99856.03;10404723;28;20055;-63
2021/09/10 20:42:38;;;;;;;17.52;7.35;;;;;;;19.04;68.18;99851.09;10408718;28;20082;-63
2021/09/10 20:47:39;;;;;;;17.90;6.30;;;;;;;18.92;68.60;99858.38;10403502;28;20057;-63
2021/09/10 20:52:41;;;;;;;391.48;13.95;;;;;;;18.86;68.99;99858.97;10418217;28;20425;-63
2021/09/10 20:57:43;;;;;;;696.97;23.85;;;;;;;18.79;69.10;99849.91;10403572;28;20472;-63
2021/09/10 21:02:45;;;;;;;557.22;17.63;;;;;;;18.58;69.14;99850.13;10405268;28;20053;-63
2021/09/10 21:07:48;;;;;;;814.22;30.25;;;;;;;18.43;69.36;99859.53;10414498;28;20144;-63
2021/09/10 21:12:50;;;;;;;576.75;20.02;;;;;;;18.33;70.06;99865.81;10426862;28;20505;-63
2021/09/10 21:17:52;;;;;;;568.85;17.38;;;;;;;18.26;69.60;99870.03;10421020;28;20460;-63
2021/09/10 21:22:54;;;;;;;353.05;9.77;;;;;;;18.26;69.47;99865.53;10422144;28;20057;-63
2021/09/10 21:27:55;;;;;;;380.98;13.20;;;;;;;18.24;69.70;99864.84;10404427;28;20399;-63
2021/09/10 21:32:57;;;;;;;309.67;12.65;;;;;;;18.15;69.74;99872.78;10402217;28;20488;-66
2021/09/10 21:37:59;;;;;;;353.15;13.05;;;;;;;18.14;69.33;99876.38;10417534;28;20057;-64
2021/09/10 21:43:00;;;;;;;381.65;15.18;;;;;;;18.13;69.40;99875.56;10392419;28;20462;-63
2021/09/10 21:48:02;;;;;;;550.72;23.58;;;;;;;18.08;69.68;99882.22;10386609;28;20057;-63
2021/09/10 21:53:04;;;;;;;266.80;10.23;;;;;;;18.08;69.96;99879.59;10389592;28;20172;-63
2021/09/10 21:58:06;;;;;;;268.23;10.45;;;;;;;18.10;70.16;99885.56;10384647;28;20060;-63
2021/09/10 22:03:07;;;;;;;277.42;11.55;;;;;;;18.08;70.04;99877.78;10391990;28;20408;-66
2021/09/10 22:08:10;;;;;;;655.33;18.80;;;;;;;18.17;69.92;99873.47;10388763;28;20072;-63
2021/09/10 22:13:13;;;;;;;867.67;27.67;;;;;;;18.05;69.96;99882.53;10379960;28;20189;-63
2021/09/10 22:18:15;;;;;;;596.50;23.35;;;;;;;18.19;69.51;99879.44;10401224;28;20053;-63
2021/09/10 22:23:17;;;;;;;305.33;10.05;;;;;;;18.07;69.69;99881.41;10424517;28;20500;-63
2021/09/10 22:28:19;;;;;;;655.33;21.75;;;;;;;17.94;70.02;99895.88;10408194;28;20061;-63
2021/09/10 22:33:20;;;;;;;530.72;19.20;;;;;;;17.97;70.05;99898.28;10396954;28;20056;-63
2021/09/10 22:38:22;;;;;;;350.85;13.00;;;;;;;18.04;69.86;99897.56;10390847;28;20053;-63
2021/09/10 22:43:24;;;;;;;518.45;18.67;;;;;;;17.97;69.99;99901.75;10409325;28;20053;-64
2021/09/10 22:48:25;;;;;;;520.25;21.10;;;;;;;18.11;69.62;99898.69;10393402;28;20053;-64
2021/09/10 22:53:27;;;;;;;529.30;17.73;;;;;;;18.07;69.41;99901.75;10405968;28;20057;-63
2021/09/10 22:58:29;;;;;;;842.55;22.40;;;;;;;17.93;69.78;99895.06;10390036;28;20209;-63
2021/09/10 23:03:30;;;;;;;459.25;13.52;;;;;;;17.79;70.03;99893.66;10384617;28;20050;-63
2021/09/10 23:08:32;;;;;;;691.90;18.30;;;;;;;17.75;69.85;99899.38;10392108;28;20064;-64
2021/09/10 23:13:34;;;;;;;506.38;12.65;;;;;;;17.71;70.05;99893.50;10383810;28;20053;-64
2021/09/10 23:18:36;;;;;;;709.90;21.15;;;;;;;17.56;70.43;99897.53;10379236;28;20742;-63
2021/09/10 23:23:38;;;;;;;390.23;12.43;;;;;;;17.34;70.26;99897.78;10380931;28;20080;-63
2021/09/10 23:28:39;;;;;;;139.32;8.38;;;;;;;17.31;70.58;99897.16;10420485;28;20055;-63
2021/09/10 23:33:41;;;;;;;20.15;5.75;;;;;;;17.47;70.62;99895.72;10383711;28;20053;-63
2021/09/10 23:38:43;;;;;;;14.13;4.70;;;;;;;17.61;70.04;99892.66;10396241;28;20057;-63
2021/09/10 23:43:46;;;;;;;276.50;11.48;;;;;;;17.73;69.60;99894.22;10420934;28;20522;-63
2021/09/10 23:48:47;;;;;;;426.38;13.75;;;;;;;17.69;69.28;99891.97;10391093;28;20096;-63
2021/09/10 23:53:49;;;;;;;217.60;7.95;;;;;;;17.61;69.47;99892.66;10394300;28;20053;-63
2021/09/10 23:58:52;;;;;;;29.65;5.25;;;;;;;17.55;69.46;99898.50;10418229;28;20059;-63
